Pagrindinis puslapis
METAR-TAF:

METAR-TAF

Oro uostai :

Mineapolis, Minesota, Jungtinės Amerikos Valstijos

platuma: 44-52-59N, ilguma: 093-13-44W, Aukštis: 256 m

Dabartinis oras

Ataskaita buvo paskelbta 8 minutes, ne 22:53 UTC
Vėjas 5 kt iš Šiaurės
Temperatūra 20°C
Drėgmė 24%
Slėgis 1024 hPa
Matomumas: 16.1 km
Giedras dangus

METAR: KMSP 302253Z 35005KT 10SM CLR 20/M01 A3024 RMK AO2 SLP241 T02001011

Laikas: 18:01 (23:01 UTC)

Prognozė

Ataskaita buvo paskelbta 2 valandos ir 2 minutes, ne 20:59 UTC
Prognozė galioja nuo 30 metu 21 UTC su 31 metu 24 UTC
Vėjas 8 kt iš Šiaurės
Matomumas: 10 km
Giedras dangus
Nuo 31 metu 0200 UTC
Vėjas 3 kt nuo kintamojo kryptimis
Matomumas: 10 km
Giedras dangus
Nuo 31 metu 1700 UTC
Vėjas 7 kt iš Pietų
Matomumas: 10 km
Išsisklaidę debesys ne aukštis 5000 ft

TAF: KMSP 302059Z 3021/3124 36008KT P6SM SKC FM310200 VRB03KT P6SM SKC FM311700 17007KT P6SM SCT050

Orai ataskaitas ir orų prognozės (METAR, TAF).

turimą stotys yra geltonos ir raudonos taškus žemėlapyje.

Perkelti pele per norėdami pamatyti stoties vardą.

Tada spustelėkite, norėdami matyti oro stebėjimo ir prognozės.

Norėdami pakeisti žemėlapį: spustelėkite ant žalios mygtukų su juodo kryžiaus žemyn,; žalią mygtuką su brūkšneliu, jei norite nutolinti; arba žalių rodyklių gretimoms žemėlapius.


METAR-TAF: